Honaunau, HI

2:03 AM HST on July 14, 2014 (GMT -1000)
Hilo International (PHTO) Elev 36 ft | 19.72 °N, 155.05 °W | Change Station

Current weather conditions updated 10 minutes ago

Light Rain
Light Rain
74 °F
Feels Like 74 °F
N
7
Wind Variable Wind from SW

Today is forecast to be Warmer than yesterday. Showers and thunderstorms.

Today
High -- | Low -- °F
--% Chance of Precip.
Yesterday
High -- | Low -- °F
Precip. -- in
5:53 AM 7:05 PM
Waning Gibbous, 94% visible
Pressure 30.04 in
Visibility 10.0 miles
Clouds Overcast 3900 ft
Dew Point 73 °F
Humidity 97%
Rainfall 0.14 in
Snow Depth Not available.
UV 0 out of 12
Pollen Not available.
Air Quality Not available.
Flu Activity Sporadic
METAR PHTO 141153Z 22006KT 10SM -RA OVC039 23/23 A3004 RMK AO2 RAE16B46 SLP172 P0003 60169 70448 T02330228 58011

More Conditions Fewer Conditions

Pressure 30.04 in
Visibility 10.0 miles
Clouds Overcast 3900 ft
Dew Point 73 °F
Humidity 97%
Rainfall 0.14 in
Snow Depth Not available.
UV 0 out of 12
Pollen Not available.
Air Quality Not available.
Flu Activity Sporadic
METAR PHTO 141153Z 22006KT 10SM -RA OVC039 23/23 A3004 RMK AO2 RAE16B46 SLP172 P0003 60169 70448 T02330228 58011

More Conditions Fewer Conditions

10-Day Weather Forecast

Almanac

Astronomy

Jul. 14, 2014 Rise Set
Actual Time 5:53 AM HST 7:05 PM HST
Civil Twilight 5:29 AM HST 7:29 PM HST
Nautical Twilight 5:00 AM HST 7:57 PM HST
Astronomical Twilight 4:31 AM HST 8:27 PM HST
Moon 9:14 PM HST 8:21 AM HST
Length of Visible Light 14h 00m
Length of Day
13h 11m
Tomorrow will be 0m 32s shorter.
Waning Gibbous, 94% of the Moon is Illuminated
Today
Waning Gibbous
Jul 18
Last Quarter
Jul 26
New
Aug 3
First Quarter
Aug 10
Full

Today's Extremes

State Highs State Lows

Community

WunderPhotos

Upload Photos

1,733,620 photos uploaded!

Nearby

Snow Depth

Station Depth Elevation
No new snow has been reported.

Earthquake Activity

City Distance Mag. Time & Date
No recent earthquake activity has been reported nearby.
Minimum magnitude displayed is 2.5.

Coastal Water Temperatures

Place Temperature
No Stations Reporting

Nearby Weather Stations

Station Location Temp. Heat Index Dew Point Humidity Wind Precip. Elev Updated Type
Captain Cook, Captain Cook, HI 71.3 °F 73 °F 63 °F 76% NNE  at  3.0 mph 0.00 in / hr 915 ft 1:43 AM HST Normal
Halemalu, Captain Cook, HI 69.1 °F - 64 °F 84% NE  at  0.0 mph 0.00 in / hr 1700 ft 2:03 AM HST Rapid Fire
Kona Palisades, Kailua-Kona, HI 73.7 °F 74 °F 67 °F 80% SE  at  2.0 mph 0.00 in / hr 1007 ft 1:48 AM HST Normal

Show More Stations Show Fewer Stations